Time;durP1;ratioP1;P1;durP2;ratioP2;P2;SDS_P1;SDS_P2;PMS_P1;PMS_P2;Temp;Humidity;BMP_temperature;BMP_pressure;BME280_temperature;BME280_humidity;BME280_pressure;Samples;Min_cycle;Max_cycle;Signal;HPM_P1;HPM_P2
2022/04/05 00:02:20;;;;;;;11.97;7.10;;;3.60;66.40;;;;;;5054455;28;46433;-65
2022/04/05 00:04:45;;;;;;;11.60;6.47;;;3.60;66.50;;;;;;5061134;28;45975;-64
2022/04/05 00:07:11;;;;;;;10.73;6.80;;;3.60;66.50;;;;;;5060794;28;49251;-64
2022/04/05 00:09:36;;;;;;;10.90;7.33;;;3.60;66.80;;;;;;5060176;28;46244;-64
2022/04/05 00:12:03;;;;;;;10.90;6.67;;;3.60;66.90;;;;;;5052736;28;46486;-66
2022/04/05 00:14:28;;;;;;;10.47;6.10;;;3.60;66.90;;;;;;5058746;28;46338;-66
2022/04/05 00:16:54;;;;;;;13.57;7.00;;;3.60;66.80;;;;;;5059506;28;46394;-64
2022/04/05 00:19:21;;;;;;;12.50;7.03;;;3.70;67.00;;;;;;5060799;28;46356;-64
2022/04/05 00:21:48;;;;;;;10.57;6.30;;;3.60;67.00;;;;;;5056258;28;46362;-64
2022/04/05 00:24:14;;;;;;;12.00;6.23;;;3.60;67.20;;;;;;5061037;28;46284;-63
2022/04/05 00:26:40;;;;;;;9.17;6.33;;;3.50;67.40;;;;;;5055371;28;47052;-65
2022/04/05 00:29:05;;;;;;;9.63;6.43;;;3.60;67.40;;;;;;5060885;28;46493;-63
2022/04/05 00:31:31;;;;;;;11.20;6.30;;;3.60;67.60;;;;;;5054932;28;46339;-63
2022/04/05 00:33:57;;;;;;;8.67;5.00;;;3.60;67.50;;;;;;5060895;28;46396;-64
2022/04/05 00:36:22;;;;;;;9.23;6.13;;;3.60;67.60;;;;;;5060435;28;46591;-63
2022/04/05 00:38:48;;;;;;;11.67;6.30;;;3.60;67.80;;;;;;5058183;28;46465;-65
2022/04/05 00:41:14;;;;;;;10.80;6.50;;;3.50;67.70;;;;;;5049188;28;46205;-64
2022/04/05 00:43:40;;;;;;;12.80;7.30;;;3.50;67.70;;;;;;5050919;28;46627;-65
2022/04/05 00:46:06;;;;;;;10.47;5.70;;;3.50;67.80;;;;;;5060150;28;46467;-64
2022/04/05 00:48:52;;;;;;;9.18;6.13;;;3.50;67.90;;;;;;5058698;28;46478;-63
2022/04/05 00:51:19;;;;;;;7.95;5.65;;;3.60;67.90;;;;;;5044066;28;46425;-63
2022/04/05 00:53:47;;;;;;;8.40;4.83;;;3.60;68.00;;;;;;5060261;28;46503;-64
2022/04/05 00:56:18;;;;;;;10.00;6.30;;;3.60;67.90;;;;;;5056762;28;47014;-65
2022/04/05 00:58:49;;;;;;;9.45;5.95;;;3.60;68.20;;;;;;5057563;28;46430;-62
2022/04/05 01:01:21;;;;;;;12.23;6.07;;;3.50;68.30;;;;;;5058661;28;46525;-65
2022/04/05 01:03:49;;;;;;;13.17;6.10;;;3.50;68.30;;;;;;5058681;28;45958;-62
2022/04/05 01:06:19;;;;;;;8.67;6.40;;;3.60;68.50;;;;;;5057717;28;46258;-64
2022/04/05 01:08:48;;;;;;;11.93;6.00;;;3.60;68.30;;;;;;5062438;28;46436;-64
2022/04/05 01:11:14;;;;;;;10.18;6.43;;;3.60;68.20;;;;;;5063984;28;46251;-63
2022/04/05 01:13:40;;;;;;;8.67;6.33;;;3.60;68.20;;;;;;5063609;28;46528;-66
2022/04/05 01:16:06;;;;;;;10.50;6.13;;;3.70;68.20;;;;;;5063734;28;46435;-65
2022/04/05 01:18:33;;;;;;;10.15;6.00;;;3.60;68.20;;;;;;5067036;28;46420;-64
2022/04/05 01:20:59;;;;;;;8.48;6.38;;;3.60;68.20;;;;;;5063215;28;46510;-67
2022/04/05 01:23:26;;;;;;;10.23;6.07;;;3.60;68.30;;;;;;5061405;28;46421;-66
2022/04/05 01:25:52;;;;;;;11.30;5.93;;;3.60;68.40;;;;;;5061883;28;47008;-65
2022/04/05 01:28:21;;;;;;;9.65;6.20;;;3.50;68.70;;;;;;5059288;28;46618;-64
2022/04/05 01:30:47;;;;;;;16.48;7.18;;;3.50;68.80;;;;;;5062101;28;46496;-64
2022/04/05 01:33:13;;;;;;;8.83;5.93;;;3.50;68.80;;;;;;5061396;28;46289;-65
2022/04/05 01:35:40;;;;;;;9.05;5.90;;;3.60;68.70;;;;;;5063053;28;47217;-66
2022/04/05 01:38:10;;;;;;;10.15;6.00;;;3.60;68.70;;;;;;5063220;28;46364;-67
2022/04/05 01:40:36;;;;;;;11.48;7.13;;;3.60;68.70;;;;;;5061450;28;46351;-62
2022/04/05 01:43:02;;;;;;;9.13;6.17;;;3.60;68.60;;;;;;5056764;28;46421;-65
2022/04/05 01:45:28;;;;;;;11.73;7.30;;;3.60;68.60;;;;;;5061687;28;46426;-62
2022/04/05 01:47:54;;;;;;;12.10;7.00;;;3.60;68.80;;;;;;5060045;28;46560;-63
2022/04/05 01:50:20;;;;;;;9.43;6.70;;;3.60;68.70;;;;;;5062786;28;46377;-65
2022/04/05 01:52:45;;;;;;;9.50;6.20;;;3.70;68.80;;;;;;5063405;28;46278;-65
2022/04/05 01:55:11;;;;;;;8.23;6.03;;;3.70;68.60;;;;;;5062824;28;48591;-64
2022/04/05 01:57:37;;;;;;;9.50;5.53;;;3.70;68.60;;;;;;5055636;28;45898;-65
2022/04/05 02:00:14;;;;;;;8.07;4.90;;;3.80;68.70;;;;;;5061450;28;46382;-65
2022/04/05 02:02:40;;;;;;;7.20;5.53;;;3.80;68.30;;;;;;5058124;28;46261;-65
2022/04/05 02:05:07;;;;;;;7.60;5.13;;;3.90;68.20;;;;;;5059933;28;46635;-65
2022/04/05 02:07:33;;;;;;;6.85;4.75;;;3.90;68.10;;;;;;5059510;28;45912;-65
2022/04/05 02:09:58;;;;;;;7.73;5.20;;;4.00;68.00;;;;;;5060975;28;46485;-66
2022/04/05 02:12:24;;;;;;;9.50;5.80;;;4.10;67.90;;;;;;5059666;28;46497;-64
2022/04/05 02:14:50;;;;;;;8.47;5.30;;;4.10;67.80;;;;;;5060401;28;46966;-65
2022/04/05 02:17:15;;;;;;;9.37;5.60;;;4.10;67.50;;;;;;5059298;28;46425;-64
2022/04/05 02:19:41;;;;;;;7.60;5.53;;;4.20;67.40;;;;;;5060596;28;46535;-64
2022/04/05 02:22:07;;;;;;;8.70;4.80;;;4.20;67.20;;;;;;5063826;28;46431;-64
2022/04/05 02:24:32;;;;;;;10.97;5.17;;;4.20;67.10;;;;;;5059572;28;47101;-66
2022/04/05 02:26:58;;;;;;;8.43;4.97;;;4.20;67.00;;;;;;5060542;28;46379;-65
2022/04/05 02:29:23;;;;;;;10.57;5.70;;;4.30;67.10;;;;;;5058031;28;46331;-64
2022/04/05 02:31:49;;;;;;;12.00;4.93;;;4.30;67.00;;;;;;5060350;28;46664;-67
2022/04/05 02:34:15;;;;;;;9.63;5.23;;;4.40;66.70;;;;;;5057625;28;47030;-67
2022/04/05 02:36:41;;;;;;;7.30;4.53;;;4.40;66.60;;;;;;5058227;28;46374;-65
2022/04/05 02:39:07;;;;;;;6.50;4.50;;;4.40;66.40;;;;;;5058186;28;46370;-65
2022/04/05 02:41:33;;;;;;;5.97;4.63;;;4.40;66.40;;;;;;5058084;28;46419;-65
2022/04/05 02:43:59;;;;;;;8.57;5.13;;;4.40;66.30;;;;;;5058226;28;46140;-64
2022/04/05 02:46:25;;;;;;;10.47;5.33;;;4.40;66.30;;;;;;5055994;28;46432;-65
2022/04/05 02:48:54;;;;;;;8.30;4.60;;;4.40;66.30;;;;;;5059595;28;46478;-63
2022/04/05 02:51:20;;;;;;;10.00;4.90;;;4.40;66.30;;;;;;5061450;28;46342;-64
2022/04/05 02:53:46;;;;;;;7.50;5.37;;;4.40;66.30;;;;;;5061811;28;46374;-65
2022/04/05 02:56:13;;;;;;;9.80;5.80;;;4.40;66.20;;;;;;5057995;28;46352;-63
2022/04/05 02:58:38;;;;;;;7.87;5.53;;;4.50;66.10;;;;;;5052916;28;45813;-64
2022/04/05 03:01:05;;;;;;;10.10;4.03;;;4.40;65.80;;;;;;5064157;28;46359;-65
2022/04/05 03:03:32;;;;;;;8.90;4.90;;;4.40;66.90;;;;;;5062726;28;47042;-64
2022/04/05 03:05:58;;;;;;;7.53;4.90;;;4.50;65.50;;;;;;5058992;28;46392;-65
2022/04/05 03:08:23;;;;;;;8.37;4.50;;;4.60;65.30;;;;;;5055489;28;46453;-64
2022/04/05 03:10:50;;;;;;;6.50;4.60;;;4.60;64.80;;;;;;5052216;28;46288;-63
2022/04/05 03:13:16;;;;;;;5.80;3.80;;;4.70;64.70;;;;;;5061930;28;46299;-62
2022/04/05 03:15:42;;;;;;;6.63;4.83;;;4.70;64.50;;;;;;5060884;28;46241;-63
2022/04/05 03:18:07;;;;;;;6.10;4.10;;;4.80;64.30;;;;;;5055938;28;46679;-63
2022/04/05 03:20:33;;;;;;;6.50;4.57;;;4.80;64.20;;;;;;5060319;28;46397;-64
2022/04/05 03:23:00;;;;;;;5.67;3.87;;;4.80;64.00;;;;;;5061026;28;47158;-64
2022/04/05 03:25:29;;;;;;;9.70;4.53;;;4.90;63.90;;;;;;5057493;28;46429;-63
2022/04/05 03:27:54;;;;;;;5.53;3.53;;;4.90;63.70;;;;;;5060099;28;46454;-67
2022/04/05 03:30:22;;;;;;;7.87;4.70;;;4.90;64.50;;;;;;5060004;28;46509;-63
2022/04/05 03:32:48;;;;;;;6.77;4.40;;;4.90;62.90;;;;;;5057723;28;47122;-65
2022/04/05 03:35:14;;;;;;;22.03;3.93;;;5.00;62.90;;;;;;5058333;28;45862;-63
2022/04/05 03:37:40;;;;;;;7.17;4.20;;;5.00;62.70;;;;;;5059239;28;46379;-62
2022/04/05 03:40:07;;;;;;;9.17;4.60;;;5.00;62.50;;;;;;5058812;28;46556;-62
2022/04/05 03:42:33;;;;;;;6.50;4.87;;;5.00;62.30;;;;;;5057790;28;46209;-67
2022/04/05 03:44:59;;;;;;;5.63;3.97;;;5.00;62.00;;;;;;5053935;28;46381;-64
2022/04/05 03:47:26;;;;;;;10.87;5.17;;;5.00;61.90;;;;;;5059838;28;46466;-61
2022/04/05 03:49:52;;;;;;;7.30;4.60;;;5.00;61.70;;;;;;5052064;28;46349;-66
2022/04/05 03:52:18;;;;;;;7.00;4.00;;;5.00;61.60;;;;;;5060834;28;47491;-62
2022/04/05 03:54:43;;;;;;;10.90;5.23;;;4.90;61.60;;;;;;5061507;28;46488;-63
2022/04/05 03:57:09;;;;;;;8.60;5.40;;;4.80;61.70;;;;;;5061156;28;46337;-64
2022/04/05 03:59:34;;;;;;;8.50;4.67;;;4.70;61.80;;;;;;5055135;28;46444;-65
2022/04/05 04:02:00;;;;;;;11.30;5.70;;;4.70;62.00;;;;;;5054298;28;47081;-64
2022/04/05 04:04:25;;;;;;;8.87;5.10;;;4.60;62.10;;;;;;5061679;28;46421;-64
2022/04/05 04:06:51;;;;;;;9.33;5.60;;;4.60;62.30;;;;;;5061194;28;46474;-62
2022/04/05 04:09:17;;;;;;;10.20;6.17;;;4.50;62.40;;;;;;5059525;28;46416;-63
2022/04/05 04:11:44;;;;;;;10.60;5.97;;;4.50;62.30;;;;;;5053346;28;46955;-63
2022/04/05 04:14:10;;;;;;;9.10;6.20;;;4.50;62.50;;;;;;5059661;28;46335;-66
2022/04/05 04:16:36;;;;;;;10.33;6.40;;;4.40;62.70;;;;;;5054473;28;46244;-64
2022/04/05 04:19:02;;;;;;;11.43;6.07;;;4.40;62.90;;;;;;5059086;28;46437;-64
2022/04/05 04:21:28;;;;;;;8.40;5.97;;;4.50;62.90;;;;;;5057571;28;46402;-63
2022/04/05 04:23:54;;;;;;;13.17;5.87;;;4.40;62.90;;;;;;5056147;28;46347;-63
2022/04/05 04:26:20;;;;;;;8.00;5.70;;;4.50;62.90;;;;;;5059797;28;45914;-64
2022/04/05 04:28:50;;;;;;;9.37;5.50;;;4.50;62.90;;;;;;5047028;28;46401;-63
2022/04/05 04:31:15;;;;;;;9.27;5.90;;;4.60;62.80;;;;;;5056498;28;47315;-63
2022/04/05 04:33:41;;;;;;;9.00;5.40;;;4.60;62.80;;;;;;5061288;28;46331;-64
2022/04/05 04:36:06;;;;;;;7.23;5.70;;;4.60;62.60;;;;;;5059915;28;46376;-63
2022/04/05 04:38:32;;;;;;;8.38;5.78;;;4.70;62.60;;;;;;5061521;28;46586;-63
2022/04/05 04:40:58;;;;;;;9.37;6.00;;;4.70;62.60;;;;;;5060069;28;47020;-62
2022/04/05 04:43:24;;;;;;;8.20;5.50;;;4.70;62.70;;;;;;5068020;28;46428;-63
2022/04/05 04:45:50;;;;;;;9.43;5.60;;;4.70;63.00;;;;;;5063924;28;46298;-65
2022/04/05 04:48:15;;;;;;;10.02;5.72;;;4.80;62.80;;;;;;5061480;28;46708;-62
2022/04/05 04:50:41;;;;;;;8.30;5.83;;;4.80;62.60;;;;;;5062258;28;47191;-62
2022/04/05 04:53:07;;;;;;;10.13;5.87;;;4.80;62.60;;;;;;5064380;28;46578;-64
2022/04/05 04:55:33;;;;;;;8.20;5.73;;;4.80;62.50;;;;;;5065795;28;46384;-65
2022/04/05 04:57:59;;;;;;;12.67;6.40;;;4.80;62.40;;;;;;5063778;28;46412;-61
2022/04/05 05:00:24;;;;;;;9.60;5.47;;;4.80;62.30;;;;;;5063992;28;46431;-68
2022/04/05 05:02:51;;;;;;;9.03;6.00;;;4.80;62.30;;;;;;5058205;28;46364;-63
2022/04/05 05:05:21;;;;;;;9.87;6.47;;;4.90;62.40;;;;;;5058856;28;46325;-63
2022/04/05 05:07:48;;;;;;;7.90;5.50;;;4.80;62.20;;;;;;5064138;28;46358;-64
2022/04/05 05:10:19;;;;;;;9.40;7.03;;;4.80;62.30;;;;;;5058999;28;46612;-65
2022/04/05 05:12:45;;;;;;;10.30;6.57;;;4.80;62.60;;;;;;5060877;28;46259;-63
2022/04/05 05:15:18;;;;;;;9.90;6.20;;;4.80;63.40;;;;;;5064020;28;46453;-63
2022/04/05 05:17:44;;;;;;;10.20;6.37;;;4.70;63.30;;;;;;5059122;28;46710;-62
2022/04/05 05:20:11;;;;;;;8.70;5.90;;;4.70;63.30;;;;;;5064265;28;45971;-64
2022/04/05 05:22:37;;;;;;;7.47;5.40;;;4.60;63.30;;;;;;5063429;28;46344;-63
2022/04/05 05:25:04;;;;;;;10.37;6.40;;;4.60;63.40;;;;;;5057366;28;46306;-62
2022/04/05 05:27:30;;;;;;;11.53;6.13;;;4.60;63.40;;;;;;5051226;28;46628;-63
2022/04/05 05:29:56;;;;;;;12.03;6.60;;;4.60;63.50;;;;;;5061210;28;47282;-62
2022/04/05 05:32:21;;;;;;;9.50;6.23;;;4.60;63.80;;;;;;5063673;28;46322;-64
2022/04/05 05:34:47;;;;;;;9.87;6.83;;;4.60;63.70;;;;;;5062714;28;46357;-62
2022/04/05 05:37:13;;;;;;;11.40;6.30;;;4.60;63.70;;;;;;5055631;28;46532;-65
2022/04/05 05:39:39;;;;;;;8.97;6.23;;;4.60;63.80;;;;;;5060733;28;46458;-63
2022/04/05 05:42:06;;;;;;;10.73;6.00;;;4.50;64.00;;;;;;5063918;28;46355;-64
2022/04/05 05:44:34;;;;;;;11.13;6.77;;;4.50;64.20;;;;;;5064013;28;46505;-65
2022/04/05 05:47:00;;;;;;;10.17;6.77;;;4.60;64.20;;;;;;5064761;28;45937;-64
2022/04/05 05:49:26;;;;;;;10.37;7.80;;;4.60;64.20;;;;;;5063682;28;47823;-63
2022/04/05 05:51:52;;;;;;;13.17;7.40;;;4.60;64.20;;;;;;5062382;28;46400;-66
2022/04/05 05:54:18;;;;;;;11.67;7.40;;;4.60;64.40;;;;;;5053007;28;45863;-64
2022/04/05 05:56:44;;;;;;;11.33;6.97;;;4.50;64.70;;;;;;5063554;28;46433;-64
2022/04/05 05:59:10;;;;;;;11.07;6.47;;;4.50;64.70;;;;;;5062097;28;46550;-64
2022/04/05 06:01:36;;;;;;;11.53;7.50;;;4.60;64.90;;;;;;5051345;28;46500;-63
2022/04/05 06:04:01;;;;;;;11.93;7.53;;;4.60;64.80;;;;;;5061577;28;46412;-65
2022/04/05 06:06:31;;;;;;;12.70;7.73;;;4.70;64.90;;;;;;5060000;28;46625;-67
2022/04/05 06:08:58;;;;;;;11.50;7.00;;;4.60;65.10;;;;;;5061223;28;46605;-64
2022/04/05 06:11:24;;;;;;;10.73;7.40;;;4.60;65.10;;;;;;5062664;28;46306;-65
2022/04/05 06:13:50;;;;;;;8.47;6.50;;;4.60;65.10;;;;;;5059359;28;46416;-67
2022/04/05 06:16:16;;;;;;;11.77;7.80;;;4.50;65.10;;;;;;5062890;28;46315;-64
2022/04/05 06:18:42;;;;;;;12.85;8.88;;;4.60;65.30;;;;;;5059700;28;46429;-64
2022/04/05 06:21:08;;;;;;;12.20;6.93;;;4.50;65.90;;;;;;5060981;28;46402;-66
2022/04/05 06:23:34;;;;;;;10.60;7.60;;;4.50;66.60;;;;;;5061693;28;46224;-66
2022/04/05 06:26:00;;;;;;;11.40;7.53;;;4.40;66.60;;;;;;5062281;28;46383;-64
2022/04/05 06:28:26;;;;;;;12.87;7.30;;;4.50;66.50;;;;;;5061155;28;46339;-63
2022/04/05 06:30:51;;;;;;;14.50;6.97;;;4.70;66.40;;;;;;5062433;28;46489;-66
2022/04/05 06:33:19;;;;;;;11.50;7.17;;;4.70;66.30;;;;;;5057901;28;46294;-64
2022/04/05 06:35:48;;;;;;;11.53;6.93;;;4.60;66.20;;;;;;5054801;28;46639;-65
2022/04/05 06:38:14;;;;;;;12.50;8.07;;;4.70;66.10;;;;;;5061011;28;47394;-66
2022/04/05 06:40:43;;;;;;;10.67;7.20;;;4.80;66.00;;;;;;5060945;28;46368;-65
2022/04/05 06:43:13;;;;;;;13.27;7.30;;;4.80;65.80;;;;;;5058156;28;46766;-64
2022/04/05 06:45:39;;;;;;;12.50;7.87;;;4.90;65.60;;;;;;5062396;28;45776;-64
2022/04/05 06:48:06;;;;;;;12.00;6.97;;;4.90;65.60;;;;;;5063486;28;46033;-64
2022/04/05 06:50:33;;;;;;;12.60;7.97;;;5.00;65.50;;;;;;5057587;28;46658;-64
2022/04/05 06:52:59;;;;;;;11.50;7.50;;;5.00;65.40;;;;;;5062558;28;46480;-65
2022/04/05 06:55:26;;;;;;;11.70;7.40;;;5.00;65.30;;;;;;5062563;28;46432;-63
2022/04/05 06:57:52;;;;;;;11.50;7.30;;;5.00;65.40;;;;;;5057396;28;46495;-62
2022/04/05 07:00:21;;;;;;;11.63;7.77;;;5.00;65.60;;;;;;5056266;28;46271;-65
2022/04/05 07:02:47;;;;;;;14.50;7.90;;;5.00;65.70;;;;;;5054287;28;46319;-63
2022/04/05 07:05:14;;;;;;;9.20;7.30;;;5.10;65.60;;;;;;5049789;28;45811;-65
2022/04/05 07:07:39;;;;;;;17.70;8.10;;;5.10;65.80;;;;;;5061678;28;46504;-65
2022/04/05 07:10:07;;;;;;;12.37;8.07;;;5.20;65.50;;;;;;5061792;28;46401;-64
2022/04/05 07:12:33;;;;;;;9.60;6.50;;;5.30;65.50;;;;;;5059605;28;46235;-64
2022/04/05 07:14:59;;;;;;;10.23;6.50;;;5.30;65.50;;;;;;5059833;28;46356;-62
2022/04/05 07:17:25;;;;;;;11.10;6.80;;;5.30;65.30;;;;;;5060033;28;46087;-65
2022/04/05 07:19:52;;;;;;;11.50;6.73;;;5.40;65.40;;;;;;5061306;28;46364;-65
2022/04/05 07:22:17;;;;;;;9.83;6.87;;;5.40;65.50;;;;;;5061557;28;45727;-64
2022/04/05 07:24:43;;;;;;;11.60;6.70;;;5.50;65.20;;;;;;5059832;28;46443;-65
2022/04/05 07:27:09;;;;;;;9.37;6.20;;;5.70;65.20;;;;;;5061680;28;48063;-64
2022/04/05 07:29:34;;;;;;;11.43;6.47;;;5.70;65.10;;;;;;5059149;28;46744;-66
2022/04/05 07:32:00;;;;;;;10.03;6.07;;;5.70;65.00;;;;;;5054016;28;46399;-64
2022/04/05 07:34:26;;;;;;;9.70;6.00;;;5.80;65.20;;;;;;5057638;28;46504;-65
2022/04/05 07:36:52;;;;;;;8.20;5.43;;;5.90;65.00;;;;;;5055680;28;46056;-64
2022/04/05 07:39:19;;;;;;;10.50;6.40;;;5.90;65.00;;;;;;5058895;28;46479;-64
2022/04/05 07:41:45;;;;;;;9.10;5.40;;;5.90;64.80;;;;;;5061696;28;46410;-64
2022/04/05 07:44:10;;;;;;;12.83;6.90;;;6.10;64.60;;;;;;5060388;28;46331;-62
2022/04/05 07:46:36;;;;;;;9.37;6.30;;;6.30;64.30;;;;;;5056570;28;46195;-63
2022/04/05 07:49:02;;;;;;;8.00;5.90;;;6.30;64.20;;;;;;5061345;28;46390;-65
2022/04/05 07:51:28;;;;;;;9.97;5.70;;;6.20;64.30;;;;;;5061094;28;46317;-66
2022/04/05 07:53:53;;;;;;;9.90;6.33;;;6.20;64.40;;;;;;5056438;28;46516;-63
2022/04/05 07:56:19;;;;;;;7.70;5.30;;;6.10;64.50;;;;;;5061408;28;46635;-64
2022/04/05 07:58:45;;;;;;;8.97;5.70;;;6.20;64.60;;;;;;5056477;28;46454;-64
2022/04/05 08:01:11;;;;;;;7.03;5.60;;;6.30;64.40;;;;;;5059510;28;46343;-66
2022/04/05 08:03:37;;;;;;;11.60;6.60;;;6.50;64.10;;;;;;5059007;28;46386;-65
2022/04/05 08:06:03;;;;;;;7.23;5.60;;;6.50;63.90;;;;;;5059660;28;46322;-63
2022/04/05 08:08:29;;;;;;;11.57;6.60;;;6.50;63.80;;;;;;5059540;28;46331;-64
2022/04/05 08:10:55;;;;;;;10.50;6.60;;;6.60;63.80;;;;;;5061033;28;45772;-65
2022/04/05 08:13:21;;;;;;;10.63;5.83;;;6.60;63.90;;;;;;5061460;28;46308;-63
2022/04/05 08:15:46;;;;;;;9.10;6.13;;;6.60;63.90;;;;;;5059661;28;46231;-65
2022/04/05 08:18:12;;;;;;;9.43;6.40;;;6.60;63.90;;;;;;5058163;28;46387;-64
2022/04/05 08:20:41;;;;;;;14.00;6.30;;;6.80;63.60;;;;;;5060906;28;46381;-66
2022/04/05 08:23:07;;;;;;;13.50;7.50;;;6.90;63.50;;;;;;5060993;28;46508;-64
2022/04/05 08:25:32;;;;;;;10.67;6.47;;;6.90;63.30;;;;;;5059982;28;47447;-65
2022/04/05 08:27:58;;;;;;;9.80;6.17;;;7.10;62.90;;;;;;5059666;28;46378;-64
2022/04/05 08:30:24;;;;;;;9.10;6.23;;;7.20;63.00;;;;;;5061358;28;46383;-64
2022/04/05 08:32:49;;;;;;;12.17;7.00;;;7.40;62.70;;;;;;5058721;28;46386;-65
2022/04/05 08:35:18;;;;;;;10.00;6.53;;;7.60;62.50;;;;;;5056857;28;47063;-65
2022/04/05 08:37:45;;;;;;;11.10;7.00;;;7.60;62.30;;;;;;5059573;28;46306;-64
2022/04/05 08:40:13;;;;;;;11.80;7.43;;;7.50;62.40;;;;;;5061453;28;45748;-63
2022/04/05 08:42:42;;;;;;;10.27;6.50;;;7.50;62.70;;;;;;5057323;28;46353;-64
2022/04/05 08:45:10;;;;;;;11.47;6.07;;;7.60;64.10;;;;;;5060289;28;46508;-63
2022/04/05 08:47:58;;;;;;;10.00;6.63;;;7.60;62.80;;;;;;5057220;28;46493;-63
2022/04/05 08:50:29;;;;;;;9.40;6.53;;;7.50;62.70;;;;;;5060495;28;46311;-66
2022/04/05 08:52:56;;;;;;;8.77;5.63;;;7.60;62.90;;;;;;5059385;28;45799;-66
2022/04/05 08:55:22;;;;;;;9.37;6.50;;;7.70;62.70;;;;;;5060925;28;47247;-66
2022/04/05 08:57:49;;;;;;;10.03;6.30;;;7.70;62.70;;;;;;5062176;28;46083;-65
2022/04/05 09:00:19;;;;;;;14.23;8.90;;;7.70;62.30;;;;;;5059532;28;46347;-62
2022/04/05 09:02:56;;;;;;;9.37;6.53;;;7.80;62.30;;;;;;5050774;28;46466;-61
2022/04/05 09:05:39;;;;;;;11.00;6.00;;;7.80;63.40;;;;;;5060180;28;47188;-64
2022/04/05 09:08:12;;;;;;;9.90;5.50;;;7.80;62.20;;;;;;5058777;28;46386;-63
2022/04/05 09:10:38;;;;;;;8.33;5.50;;;7.80;62.30;;;;;;5059724;28;46427;-62
2022/04/05 09:13:04;;;;;;;6.77;4.60;;;7.80;63.50;;;;;;5060699;28;46409;-62
2022/04/05 09:15:30;;;;;;;10.33;5.97;;;7.90;62.20;;;;;;5060729;28;47031;-63
2022/04/05 09:17:56;;;;;;;8.50;5.50;;;7.90;62.10;;;;;;5057491;28;46112;-62
2022/04/05 09:20:24;;;;;;;11.23;5.60;;;8.00;61.90;;;;;;5051495;28;46456;-62
2022/04/05 09:22:51;;;;;;;8.40;5.20;;;8.10;61.70;;;;;;5059862;28;46588;-61
2022/04/05 09:25:17;;;;;;;7.60;5.10;;;8.20;61.70;;;;;;5055647;28;47115;-62
2022/04/05 09:27:44;;;;;;;9.15;5.80;;;8.10;61.50;;;;;;5059887;28;46421;-63
2022/04/05 09:30:17;;;;;;;9.03;5.40;;;8.20;61.70;;;;;;5061888;28;46383;-62
2022/04/05 09:32:48;;;;;;;8.13;4.83;;;8.30;61.80;;;;;;5059297;28;46455;-62
2022/04/05 09:35:16;;;;;;;8.97;5.80;;;8.40;61.50;;;;;;5060902;28;46560;-62
2022/04/05 09:37:41;;;;;;;7.70;4.93;;;8.50;61.00;;;;;;5064045;28;46460;-62
2022/04/05 09:40:32;;;;;;;10.97;5.70;;;8.90;60.50;;;;;;5055534;28;46248;-62
2022/04/05 09:43:12;;;;;;;6.03;4.40;;;9.30;59.40;;;;;;5062613;28;46390;-61
2022/04/05 09:46:00;;;;;;;7.00;4.60;;;9.60;58.80;;;;;;5062041;28;47061;-62
2022/04/05 09:48:31;;;;;;;7.67;4.80;;;9.80;58.10;;;;;;5063005;28;45743;-62
2022/04/05 09:51:12;;;;;;;7.77;5.00;;;9.90;58.00;;;;;;5061721;28;46327;-63
2022/04/05 09:53:52;;;;;;;7.83;4.90;;;10.00;57.00;;;;;;5062606;28;46589;-63
2022/04/05 09:56:25;;;;;;;11.10;5.23;;;10.00;56.70;;;;;;5063407;28;47974;-64
2022/04/05 09:58:53;;;;;;;8.37;5.53;;;10.00;56.60;;;;;;5063885;28;46366;-63
2022/04/05 10:01:22;;;;;;;5.97;4.63;;;10.00;56.40;;;;;;5062306;28;46443;-61
2022/04/05 10:04:08;;;;;;;7.83;5.03;;;9.80;57.70;;;;;;5059073;28;46424;-63
2022/04/05 10:06:38;;;;;;;9.67;5.50;;;9.50;57.90;;;;;;5061066;28;46898;-62
2022/04/05 10:09:04;;;;;;;7.80;5.40;;;9.40;58.20;;;;;;5059212;28;46351;-62
2022/04/05 10:11:32;;;;;;;5.90;4.30;;;9.20;58.20;;;;;;5058548;28;46548;-62
2022/04/05 10:13:58;;;;;;;7.77;4.70;;;9.10;58.40;;;;;;5057537;28;46291;-62
2022/04/05 10:16:29;;;;;;;8.27;5.57;;;9.10;58.30;;;;;;5063264;28;46372;-63
2022/04/05 10:19:09;;;;;;;7.30;5.07;;;9.00;58.30;;;;;;5061532;28;46286;-62
2022/04/05 10:21:37;;;;;;;9.67;4.67;;;9.10;57.90;;;;;;5051706;28;46403;-62
2022/04/05 10:24:06;;;;;;;10.60;5.97;;;9.10;57.50;;;;;;5055484;28;46286;-62
2022/04/05 10:26:35;;;;;;;10.90;5.50;;;9.10;57.50;;;;;;5059169;28;46766;-63
2022/04/05 10:29:15;;;;;;;9.70;4.80;;;9.30;57.20;;;;;;5061809;28;46283;-62
2022/04/05 10:32:10;;;;;;;10.07;5.57;;;9.50;56.60;;;;;;5062058;28;46420;-62
2022/04/05 10:34:49;;;;;;;6.83;4.70;;;9.50;56.40;;;;;;5062397;28;46433;-62
2022/04/05 10:37:32;;;;;;;7.60;5.20;;;9.40;56.60;;;;;;5062625;28;46496;-63
2022/04/05 10:39:58;;;;;;;7.37;4.93;;;9.30;57.90;;;;;;5062463;28;46433;-64
2022/04/05 10:42:25;;;;;;;9.80;4.93;;;9.40;56.40;;;;;;5062431;28;46382;-62
2022/04/05 10:45:26;;;;;;;9.33;5.70;;;9.50;56.50;;;;;;5062866;28;46415;-63
2022/04/05 10:47:58;;;;;;;8.60;5.10;;;9.50;56.10;;;;;;5058249;28;46642;-62
2022/04/05 10:50:24;;;;;;;6.37;4.60;;;9.70;55.90;;;;;;5062805;28;46466;-62
2022/04/05 10:53:12;;;;;;;9.47;4.50;;;9.90;55.30;;;;;;5061933;28;46421;-63
2022/04/05 10:56:16;;;;;;;7.10;4.80;;;10.00;54.20;;;;;;5062148;28;46227;-63
2022/04/05 10:59:08;;;;;;;7.40;5.30;;;10.10;54.30;;;;;;5061434;28;47234;-63
2022/04/05 11:01:44;;;;;;;7.60;4.43;;;10.00;54.30;;;;;;5048875;28;46465;-62
2022/04/05 11:04:17;;;;;;;7.20;4.97;;;10.10;54.50;;;;;;5061751;28;45847;-63
2022/04/05 11:07:05;;;;;;;9.33;4.20;;;10.20;54.30;;;;;;5058472;28;46322;-63
2022/04/05 11:09:47;;;;;;;6.67;4.10;;;10.10;54.00;;;;;;5061988;28;47234;-62
2022/04/05 11:12:24;;;;;;;7.20;4.13;;;10.20;53.80;;;;;;5056664;28;46373;-63
2022/04/05 11:14:58;;;;;;;5.73;4.17;;;10.10;53.60;;;;;;5055696;28;46458;-63
2022/04/05 11:17:27;;;;;;;9.20;5.30;;;10.10;53.60;;;;;;5058387;28;46433;-62
2022/04/05 11:19:56;;;;;;;10.40;4.43;;;10.10;53.80;;;;;;5060941;28;46276;-63
2022/04/05 11:22:21;;;;;;;8.30;5.47;;;10.30;53.60;;;;;;5060074;28;46348;-64
2022/04/05 11:24:54;;;;;;;6.70;4.50;;;10.30;53.50;;;;;;5056525;28;45767;-62
2022/04/05 11:27:28;;;;;;;7.03;4.90;;;10.40;53.40;;;;;;5059883;28;46287;-63
2022/04/05 11:30:22;;;;;;;8.93;4.70;;;10.40;53.10;;;;;;5062264;28;47242;-62
2022/04/05 11:33:06;;;;;;;8.57;5.30;;;10.40;52.90;;;;;;5056252;28;46173;-62
2022/04/05 11:35:37;;;;;;;6.70;4.40;;;10.60;52.90;;;;;;5059934;28;46452;-62
2022/04/05 11:38:04;;;;;;;7.60;4.80;;;10.60;52.90;;;;;;5061384;28;46448;-62
2022/04/05 11:40:31;;;;;;;11.43;4.93;;;10.50;52.40;;;;;;5059546;28;48112;-62
2022/04/05 11:43:03;;;;;;;7.90;4.40;;;10.60;52.70;;;;;;5055366;28;46455;-62
2022/04/05 11:45:29;;;;;;;6.90;4.50;;;10.70;52.30;;;;;;5060759;28;46587;-62
2022/04/05 11:47:55;;;;;;;5.83;3.90;;;10.70;52.70;;;;;;5062125;28;46444;-62
2022/04/05 11:50:22;;;;;;;8.60;5.20;;;10.70;52.70;;;;;;5050741;28;46490;-63
2022/04/05 11:52:48;;;;;;;7.47;4.60;;;10.60;52.90;;;;;;5060575;28;46359;-62
2022/04/05 11:58:05;;;;;;;5.90;4.30;;;10.80;52.40;;;;;;5057032;28;46413;-62
2022/04/05 12:00:33;;;;;;;7.80;4.33;;;11.00;52.50;;;;;;5050540;28;46490;-63
2022/04/05 12:03:03;;;;;;;7.13;4.50;;;11.10;52.70;;;;;;5058907;28;46420;-63
2022/04/05 12:05:45;;;;;;;7.00;4.43;;;11.10;52.60;;;;;;5050759;28;46415;-63
2022/04/05 12:08:12;;;;;;;8.17;4.70;;;10.90;52.50;;;;;;5059213;28;46401;-64
2022/04/05 12:10:42;;;;;;;11.67;4.77;;;10.90;52.50;;;;;;5060515;28;47324;-62
2022/04/05 12:13:08;;;;;;;6.70;4.50;;;11.10;52.70;;;;;;5060066;28;46491;-62
2022/04/05 12:15:35;;;;;;;5.90;4.20;;;11.10;52.70;;;;;;5059058;28;45875;-63
2022/04/05 12:18:18;;;;;;;8.20;5.10;;;11.10;52.70;;;;;;5058529;28;46419;-63
2022/04/05 12:21:00;;;;;;;6.97;4.80;;;11.20;53.90;;;;;;5060771;28;46571;-62
2022/04/05 12:23:36;;;;;;;7.17;4.67;;;11.40;52.10;;;;;;5060930;28;46659;-63
2022/04/05 12:26:25;;;;;;;8.30;5.50;;;11.50;51.90;;;;;;5059745;28;46496;-62
2022/04/05 12:28:57;;;;;;;8.37;4.60;;;11.70;51.50;;;;;;5060288;28;46624;-62
2022/04/05 12:31:26;;;;;;;6.83;4.23;;;11.80;51.40;;;;;;5057648;28;46738;-63
2022/04/05 12:34:13;;;;;;;9.50;4.13;;;11.90;51.40;;;;;;5054744;28;46354;-62
2022/04/05 12:36:46;;;;;;;7.87;4.63;;;12.10;50.80;;;;;;5059718;28;46410;-63
2022/04/05 12:39:21;;;;;;;8.70;4.63;;;12.10;50.70;;;;;;5060925;28;46537;-63
2022/04/05 12:41:53;;;;;;;6.73;4.50;;;12.10;50.60;;;;;;5051615;28;47159;-63
2022/04/05 12:44:20;;;;;;;7.53;4.60;;;12.40;50.30;;;;;;5059456;28;46414;-61
2022/04/05 12:46:51;;;;;;;5.77;3.90;;;12.30;50.10;;;;;;5060795;28;46377;-62
2022/04/05 12:49:30;;;;;;;12.53;4.83;;;12.10;50.30;;;;;;5058149;28;46387;-63
2022/04/05 12:52:24;;;;;;;8.33;5.00;;;11.90;51.00;;;;;;5059315;28;47075;-62
2022/04/05 12:55:18;;;;;;;6.43;4.20;;;11.90;50.60;;;;;;5058816;28;46291;-62
2022/04/05 12:57:49;;;;;;;7.77;4.70;;;12.40;50.20;;;;;;5061159;28;46373;-63
2022/04/05 13:00:28;;;;;;;8.00;4.37;;;12.70;49.40;;;;;;5060128;28;46652;-64
2022/04/05 13:03:10;;;;;;;6.80;4.97;;;12.80;49.40;;;;;;5059906;28;46509;-64